Time;durP1;ratioP1;P1;durP2;ratioP2;P2;SDS_P1;SDS_P2;PMS_P1;PMS_P2;Temp;Humidity;BMP_temperature;BMP_pressure;BME280_temperature;BME280_humidity;BME280_pressure;Samples;Min_cycle;Max_cycle;Signal;HPM_P1;HPM_P2
2022/06/28 00:01:03;;;;;;;1999.90;999.90;;;12.50;99.90;;;;;;5069597;28;20101;-76
2022/06/28 00:03:29;;;;;;;1999.90;999.90;;;12.50;99.90;;;;;;5056725;28;20039;-76
2022/06/28 00:05:55;;;;;;;1999.90;999.90;;;12.50;99.90;;;;;;5081409;28;20036;-76
2022/06/28 00:08:20;;;;;;;1999.90;999.90;;;12.40;99.90;;;;;;5090475;28;20042;-75
2022/06/28 00:10:46;;;;;;;1999.90;999.90;;;12.40;99.90;;;;;;5073489;28;20040;-76
2022/06/28 00:13:12;;;;;;;1999.90;999.90;;;12.40;99.90;;;;;;5059351;28;20036;-76
2022/06/28 00:18:22;;;;;;;1999.90;999.90;;;12.30;99.90;;;;;;5075371;28;20528;-75
2022/06/28 00:20:47;;;;;;;1999.90;999.90;;;12.30;99.90;;;;;;5100068;28;20047;-76
2022/06/28 00:23:13;;;;;;;1999.90;999.90;;;12.30;99.90;;;;;;5073861;28;20058;-76
2022/06/28 00:25:39;;;;;;;1999.90;999.90;;;12.20;99.90;;;;;;5077444;28;20031;-75
2022/06/28 00:28:05;;;;;;;1999.90;999.90;;;12.20;99.90;;;;;;5052247;28;20048;-75
2022/06/28 00:30:30;;;;;;;1999.90;999.90;;;12.20;99.90;;;;;;5071200;28;20052;-76
2022/06/28 00:32:56;;;;;;;1999.90;999.90;;;12.20;99.90;;;;;;5071375;28;20052;-76
2022/06/28 00:35:21;;;;;;;1999.90;999.90;;;12.10;99.90;;;;;;5088424;28;20044;-76
2022/06/28 00:37:47;;;;;;;1999.90;999.90;;;12.10;99.90;;;;;;5090094;28;20035;-76
2022/06/28 00:40:13;;;;;;;1999.90;999.90;;;12.10;99.90;;;;;;5106885;28;20055;-76
2022/06/28 00:42:39;;;;;;;1999.90;999.90;;;12.10;99.90;;;;;;5071088;28;20036;-76
2022/06/28 00:45:06;;;;;;;1999.90;999.90;;;12.10;99.90;;;;;;5088205;28;20051;-76
2022/06/28 00:47:32;;;;;;;1999.90;999.90;;;12.00;99.90;;;;;;5054466;28;20048;-76
2022/06/28 00:49:59;;;;;;;1999.90;999.90;;;12.00;99.90;;;;;;5056501;28;20490;-76
2022/06/28 00:52:25;;;;;;;1999.90;999.90;;;12.00;99.90;;;;;;5094627;28;20051;-76
2022/06/28 00:54:51;;;;;;;1999.90;999.90;;;12.00;99.90;;;;;;5055782;28;20433;-76
2022/06/28 00:57:17;;;;;;;1999.90;999.90;;;12.10;99.90;;;;;;5066739;28;20043;-76
2022/06/28 00:59:42;;;;;;;1999.90;999.90;;;12.10;99.90;;;;;;5071165;28;20058;-76
2022/06/28 01:02:08;;;;;;;1999.90;999.90;;;12.10;99.90;;;;;;5058890;28;20429;-76
2022/06/28 01:04:35;;;;;;;1999.90;999.90;;;12.10;99.90;;;;;;5072706;28;20051;-76
2022/06/28 01:07:01;;;;;;;1999.90;999.90;;;12.10;99.90;;;;;;5089120;28;20485;-76
2022/06/28 01:09:27;;;;;;;1999.90;999.90;;;12.10;99.90;;;;;;5070952;28;20108;-76
2022/06/28 01:11:52;;;;;;;1999.90;999.90;;;12.00;99.90;;;;;;5074914;28;20044;-76
2022/06/28 01:14:18;;;;;;;1999.90;999.90;;;12.00;99.90;;;;;;5055658;28;20142;-76
2022/06/28 01:16:45;;;;;;;1999.90;999.90;;;12.10;99.90;;;;;;5088732;28;20462;-76
2022/06/28 01:19:11;;;;;;;1999.90;999.90;;;12.00;99.90;;;;;;5084880;28;20162;-76
2022/06/28 01:21:37;;;;;;;1999.90;999.90;;;12.00;99.90;;;;;;5071927;28;20127;-76
2022/06/28 01:24:04;;;;;;;1999.90;999.90;;;12.00;99.90;;;;;;5089376;28;20412;-76
2022/06/28 01:26:31;;;;;;;1999.90;999.90;;;12.00;99.90;;;;;;5063781;28;20048;-77
2022/06/28 01:28:57;;;;;;;1999.90;999.90;;;12.00;99.90;;;;;;5053483;28;20040;-77
2022/06/28 01:31:23;;;;;;;1999.90;999.90;;;12.00;99.90;;;;;;5106084;28;20451;-77
2022/06/28 01:33:50;;;;;;;1999.90;999.90;;;12.00;99.90;;;;;;5104253;28;20036;-77
2022/06/28 01:36:16;;;;;;;1999.90;999.90;;;12.00;99.90;;;;;;5072180;28;20035;-77
2022/06/28 01:38:43;;;;;;;1999.90;999.90;;;12.00;99.90;;;;;;5068199;28;20063;-77
2022/06/28 01:41:32;;;;;;;1999.90;999.90;;;11.90;99.90;;;;;;5049612;28;20053;-77
2022/06/28 01:43:56;;;;;;;1999.90;999.90;;;11.90;99.90;;;;;;5089119;28;20456;-77
2022/06/28 01:46:22;;;;;;;1999.90;999.90;;;11.90;99.90;;;;;;5084145;28;20036;-77
2022/06/28 01:48:47;;;;;;;1999.90;999.90;;;11.90;99.90;;;;;;5101383;28;20088;-77
2022/06/28 01:51:13;;;;;;;1999.90;999.90;;;11.90;99.90;;;;;;5071795;28;20474;-77
2022/06/28 01:53:39;;;;;;;1999.90;999.90;;;11.90;99.90;;;;;;5105184;28;20036;-77
2022/06/28 01:56:04;;;;;;;1999.90;999.90;;;11.90;99.90;;;;;;5070449;28;20172;-77
2022/06/28 01:58:30;;;;;;;1999.90;999.90;;;11.90;99.90;;;;;;5091006;28;20044;-77
2022/06/28 02:00:57;;;;;;;1999.90;999.90;;;11.80;99.90;;;;;;5073400;28;20083;-76
2022/06/28 02:03:23;;;;;;;1999.90;999.90;;;11.80;99.90;;;;;;5105430;28;20051;-77
2022/06/28 02:05:49;;;;;;;1999.90;999.90;;;11.80;99.90;;;;;;5088761;28;20043;-77
2022/06/28 02:08:14;;;;;;;1999.90;999.90;;;11.80;99.90;;;;;;5052191;28;20032;-77
2022/06/28 02:10:40;;;;;;;1999.90;999.90;;;11.80;99.90;;;;;;5071579;28;20067;-77
2022/06/28 02:13:06;;;;;;;1999.90;999.90;;;11.80;99.90;;;;;;5069656;28;20039;-77
2022/06/28 02:15:32;;;;;;;1999.90;999.90;;;11.80;99.90;;;;;;5086194;28;20051;-77
2022/06/28 02:17:59;;;;;;;1999.90;999.90;;;11.80;99.90;;;;;;5087050;28;20489;-77
2022/06/28 02:20:24;;;;;;;1999.90;999.90;;;11.80;99.90;;;;;;5072000;28;20052;-77
2022/06/28 02:22:50;;;;;;;1999.90;999.90;;;11.70;99.90;;;;;;5062719;28;20413;-77
2022/06/28 02:25:17;;;;;;;1999.90;999.90;;;11.70;99.90;;;;;;5104274;28;20051;-77
2022/06/28 02:27:43;;;;;;;1999.90;999.90;;;11.70;99.90;;;;;;5070968;28;20044;-77
2022/06/28 02:30:10;;;;;;;1999.90;999.90;;;11.70;99.90;;;;;;5104109;28;20044;-77
2022/06/28 02:32:36;;;;;;;1999.90;999.90;;;11.70;99.90;;;;;;5096490;28;20127;-77
2022/06/28 02:40:41;;;;;;;1999.90;999.90;;;11.60;99.90;;;;;;5085108;28;20123;-77
2022/06/28 02:43:07;;;;;;;1999.90;999.90;;;11.60;99.90;;;;;;5059649;28;20094;-78
2022/06/28 02:45:35;;;;;;;1999.90;999.90;;;11.60;99.90;;;;;;5065549;28;20472;-77
2022/06/28 02:48:01;;;;;;;1999.90;999.90;;;11.60;99.90;;;;;;5067260;28;20119;-78
2022/06/28 02:50:27;;;;;;;1999.90;999.90;;;11.60;99.90;;;;;;5054084;28;20071;-77
2022/06/28 02:52:53;;;;;;;1999.90;999.90;;;11.60;99.90;;;;;;5068917;28;20520;-77
2022/06/28 02:55:19;;;;;;;1999.90;999.90;;;11.60;99.90;;;;;;5054749;28;20439;-78
2022/06/28 02:57:45;;;;;;;1999.90;999.90;;;11.60;99.90;;;;;;5102852;28;20028;-77
2022/06/28 03:00:14;;;;;;;1999.90;999.90;;;11.60;99.90;;;;;;5049813;28;20097;-77
2022/06/28 03:02:42;;;;;;;1999.90;999.90;;;11.50;99.90;;;;;;5100107;28;20036;-78
2022/06/28 03:05:10;;;;;;;1999.90;999.90;;;11.50;99.90;;;;;;5104641;28;20066;-78
2022/06/28 03:07:36;;;;;;;1999.90;999.90;;;11.50;99.90;;;;;;5053810;28;20132;-77
2022/06/28 03:10:03;;;;;;;1999.90;999.90;;;11.50;99.90;;;;;;5072723;28;20122;-77
2022/06/28 03:12:29;;;;;;;1999.90;999.90;;;11.50;99.90;;;;;;5052957;28;20043;-77
2022/06/28 03:14:55;;;;;;;1999.90;999.90;;;11.50;99.90;;;;;;5087162;28;20048;-77
2022/06/28 03:17:20;;;;;;;1999.90;999.90;;;11.50;99.90;;;;;;5071548;28;20579;-78
2022/06/28 03:19:46;;;;;;;1999.90;999.90;;;11.40;99.90;;;;;;5084203;28;20513;-77
2022/06/28 03:22:12;;;;;;;1999.90;999.90;;;11.50;99.90;;;;;;5069540;28;20024;-77
2022/06/28 03:24:38;;;;;;;1999.90;999.90;;;11.50;99.90;;;;;;5050283;28;20036;-77
2022/06/28 03:27:04;;;;;;;1999.90;999.90;;;11.40;99.90;;;;;;5053836;28;20028;-78
2022/06/28 03:29:29;;;;;;;1999.90;999.90;;;11.40;99.90;;;;;;5057477;28;20513;-78
2022/06/28 03:31:55;;;;;;;1999.90;999.90;;;11.40;99.90;;;;;;5051352;28;20122;-77
2022/06/28 03:34:20;;;;;;;1999.90;999.90;;;11.40;99.90;;;;;;5070300;28;20115;-77
2022/06/28 03:36:47;;;;;;;1999.90;999.90;;;11.40;99.90;;;;;;5070158;28;20526;-77
2022/06/28 03:39:13;;;;;;;1999.90;999.90;;;11.40;99.90;;;;;;5097078;28;20073;-77
2022/06/28 03:41:39;;;;;;;1999.90;999.90;;;11.40;99.90;;;;;;5073605;28;20055;-78
2022/06/28 03:44:05;;;;;;;1999.90;999.90;;;11.40;99.90;;;;;;5090036;28;20375;-77
2022/06/28 03:46:31;;;;;;;1999.90;999.90;;;11.40;99.90;;;;;;5100372;28;20576;-78
2022/06/28 03:48:57;;;;;;;1999.90;999.90;;;11.40;99.90;;;;;;5055666;28;20085;-77
2022/06/28 03:51:23;;;;;;;1999.90;999.90;;;11.40;99.90;;;;;;5087504;28;20048;-77
2022/06/28 03:53:49;;;;;;;1999.90;999.90;;;11.40;99.90;;;;;;5057327;28;20042;-77
2022/06/28 03:56:15;;;;;;;1999.90;999.90;;;11.40;99.90;;;;;;5055847;28;20048;-77
2022/06/28 03:58:41;;;;;;;1999.90;999.90;;;11.40;99.90;;;;;;5079567;28;20417;-77
2022/06/28 04:01:06;;;;;;;1999.90;999.90;;;11.40;99.90;;;;;;5053380;28;20048;-77
2022/06/28 04:03:34;;;;;;;1999.90;999.90;;;11.30;99.90;;;;;;5046207;28;20949;-78
2022/06/28 04:06:00;;;;;;;1999.90;999.90;;;11.40;99.90;;;;;;5055338;28;20051;-77
2022/06/28 04:08:25;;;;;;;1999.90;999.90;;;11.40;99.90;;;;;;5107102;28;20092;-78
2022/06/28 04:11:13;;;;;;;1999.90;999.90;;;11.40;99.90;;;;;;5072319;28;20838;-78
2022/06/28 04:13:38;;;;;;;1999.90;999.90;;;11.40;99.90;;;;;;5063052;28;20044;-78
2022/06/28 04:16:04;;;;;;;1999.90;999.90;;;11.50;99.90;;;;;;5062938;28;20040;-78
2022/06/28 04:18:30;;;;;;;1999.90;999.90;;;11.50;99.90;;;;;;5106992;28;20040;-78
2022/06/28 04:20:56;;;;;;;1999.90;999.90;;;11.60;99.90;;;;;;5071298;28;20088;-78
2022/06/28 04:23:22;;;;;;;1999.90;999.90;;;11.60;99.90;;;;;;5071465;28;20217;-78
2022/06/28 04:25:48;;;;;;;1999.90;999.90;;;11.70;99.90;;;;;;5056872;28;20489;-78
2022/06/28 04:28:13;;;;;;;1999.90;999.90;;;11.70;99.90;;;;;;5056877;28;20546;-78
2022/06/28 04:30:39;;;;;;;1999.90;999.90;;;11.80;99.90;;;;;;5104243;28;20620;-78
2022/06/28 04:33:04;;;;;;;1999.90;999.90;;;11.80;99.90;;;;;;5066484;28;20100;-78
2022/06/28 04:35:30;;;;;;;1999.90;999.90;;;12.00;99.90;;;;;;5071444;28;20498;-78
2022/06/28 04:37:56;;;;;;;1999.90;999.90;;;12.10;99.90;;;;;;5082723;28;20059;-78
2022/06/28 04:40:21;;;;;;;1999.90;999.90;;;12.20;99.90;;;;;;5070355;28;20119;-78
2022/06/28 04:42:47;;;;;;;1999.90;999.90;;;12.50;99.90;;;;;;5061913;28;20044;-78
2022/06/28 04:45:13;;;;;;;1999.90;999.90;;;12.50;99.90;;;;;;5102440;28;20051;-78
2022/06/28 04:47:38;;;;;;;1999.90;999.90;;;12.50;99.90;;;;;;5067689;28;20599;-78
2022/06/28 04:50:04;;;;;;;1999.90;999.90;;;12.50;99.90;;;;;;5088604;28;20051;-78
2022/06/28 04:52:30;;;;;;;1999.90;999.90;;;12.50;99.90;;;;;;5092070;28;20094;-78
2022/06/28 04:54:56;;;;;;;1999.90;999.90;;;12.50;99.90;;;;;;5055700;28;20132;-78
2022/06/28 04:57:21;;;;;;;1999.90;999.90;;;12.60;99.90;;;;;;5058052;28;20045;-78
2022/06/28 04:59:47;;;;;;;1999.90;999.90;;;12.60;99.90;;;;;;5103113;28;20044;-78
2022/06/28 05:02:13;;;;;;;1999.90;999.90;;;12.70;99.90;;;;;;5068700;28;20040;-78
2022/06/28 05:04:38;;;;;;;1999.90;999.90;;;12.80;99.90;;;;;;5103064;28;20040;-78
2022/06/28 05:07:04;;;;;;;1999.90;999.90;;;12.90;99.90;;;;;;5072031;28;20043;-78
2022/06/28 05:09:29;;;;;;;1999.90;999.90;;;13.10;99.90;;;;;;5069192;28;20043;-78
2022/06/28 05:11:55;;;;;;;1999.90;999.90;;;13.40;99.90;;;;;;5079776;28;20177;-78
2022/06/28 05:14:21;;;;;;;1999.90;999.90;;;13.80;99.90;;;;;;5054493;28;20482;-78
2022/06/28 05:16:46;;;;;;;1999.90;999.90;;;14.30;99.90;;;;;;5087584;28;20524;-78
2022/06/28 05:19:12;;;;;;;1999.90;999.90;;;14.90;99.90;;;;;;5070404;28;20576;-78
2022/06/28 05:21:38;;;;;;;1999.90;999.90;;;15.50;99.90;;;;;;5068806;28;20028;-78
2022/06/28 05:24:04;;;;;;;1999.90;999.90;;;15.80;99.90;;;;;;5087935;28;20122;-78
2022/06/28 05:26:30;;;;;;;1999.90;999.90;;;15.70;99.90;;;;;;5085319;28;20040;-78
2022/06/28 05:28:56;;;;;;;1999.90;999.90;;;15.60;99.90;;;;;;5083717;28;20043;-78
2022/06/28 05:31:21;;;;;;;1999.90;999.90;;;15.40;99.90;;;;;;5071250;28;20502;-78
2022/06/28 05:33:47;;;;;;;1999.90;999.90;;;15.30;99.90;;;;;;5096711;28;20032;-78
2022/06/28 05:36:13;;;;;;;1999.90;999.90;;;15.10;99.90;;;;;;5071243;28;20036;-78
2022/06/28 05:38:38;;;;;;;1999.90;999.90;;;15.10;99.90;;;;;;5071064;28;20043;-78
2022/06/28 05:41:04;;;;;;;1999.90;999.90;;;15.10;99.90;;;;;;5011505;28;1108868;-78
2022/06/28 05:43:30;;;;;;;1999.90;999.90;;;15.20;99.90;;;;;;5052254;28;20125;-78
2022/06/28 05:45:55;;;;;;;1999.90;999.90;;;15.20;99.90;;;;;;5070934;28;20066;-78
2022/06/28 05:48:21;;;;;;;1999.90;999.90;;;15.20;99.90;;;;;;5062145;28;20127;-77
2022/06/28 05:50:47;;;;;;;1999.90;999.90;;;15.20;99.90;;;;;;5051230;28;20122;-77
2022/06/28 05:53:14;;;;;;;1999.90;999.90;;;15.30;99.90;;;;;;5050960;28;20455;-77
2022/06/28 05:55:39;;;;;;;1999.90;999.90;;;15.40;99.90;;;;;;5050759;28;20098;-77
2022/06/28 05:58:05;;;;;;;1999.90;999.90;;;15.40;99.90;;;;;;5061695;28;20459;-77
2022/06/28 06:00:33;;;;;;;1999.90;999.90;;;15.50;99.90;;;;;;5076744;28;20047;-77
2022/06/28 06:02:59;;;;;;;1999.90;999.90;;;15.60;99.90;;;;;;5054241;28;20060;-77
2022/06/28 06:05:25;;;;;;;1999.90;999.90;;;15.70;99.90;;;;;;5062329;28;20125;-77
2022/06/28 06:07:51;;;;;;;1999.90;999.90;;;15.90;99.90;;;;;;5068393;28;20047;-77
2022/06/28 06:10:16;;;;;;;1999.90;999.90;;;16.30;99.90;;;;;;5066597;28;20043;-76
2022/06/28 06:12:42;;;;;;;1999.90;999.90;;;16.70;99.90;;;;;;5062441;28;20075;-76
2022/06/28 06:15:08;;;;;;;1999.90;999.90;;;17.70;99.90;;;;;;5067481;28;20106;-77
2022/06/28 06:17:34;;;;;;;1999.90;999.90;;;18.80;99.90;;;;;;5056213;28;20041;-76
2022/06/28 06:19:59;;;;;;;1999.90;999.90;;;19.40;99.90;;;;;;5070671;28;20391;-76
2022/06/28 06:22:25;;;;;;;1999.90;999.90;;;19.90;99.90;;;;;;5061189;28;20082;-76
2022/06/28 06:24:50;;;;;;;1999.90;999.90;;;20.50;99.90;;;;;;5067758;28;20126;-76
2022/06/28 06:27:16;;;;;;;1999.90;999.90;;;20.90;99.90;;;;;;5067792;28;20078;-76
2022/06/28 06:29:42;;;;;;;1999.90;999.90;;;21.20;99.90;;;;;;5065264;28;20036;-76
2022/06/28 06:32:07;;;;;;;1999.90;999.90;;;21.50;99.90;;;;;;5065250;28;20049;-76
2022/06/28 06:34:33;;;;;;;1999.90;999.90;;;21.80;99.90;;;;;;5065246;28;20102;-77
2022/06/28 06:36:59;;;;;;;1999.90;999.90;;;22.10;99.90;;;;;;5084499;28;20044;-76
2022/06/28 06:39:24;;;;;;;1999.90;999.90;;;22.60;99.90;;;;;;5053680;28;20094;-76
2022/06/28 06:41:50;;;;;;;1999.90;999.90;;;22.80;99.90;;;;;;5052946;28;20044;-76
2022/06/28 06:44:15;;;;;;;1999.90;999.90;;;23.00;99.90;;;;;;5068744;28;20115;-75
2022/06/28 06:46:41;;;;;;;1999.90;999.90;;;23.40;99.90;;;;;;5060136;28;20040;-76
2022/06/28 06:49:08;;;;;;;1999.90;999.90;;;23.40;99.90;;;;;;5106023;27;20032;-75
2022/06/28 06:51:34;;;;;;;1999.90;999.90;;;23.40;99.90;;;;;;5061487;28;20046;-76
2022/06/28 06:53:59;;;;;;;1999.90;999.90;;;23.50;99.90;;;;;;5070422;28;20409;-76
2022/06/28 06:56:25;;;;;;;1999.90;999.90;;;24.00;99.90;;;;;;5088027;28;20039;-75
2022/06/28 06:58:51;;;;;;;1999.90;999.90;;;24.40;99.90;;;;;;5068416;28;20509;-75
2022/06/28 07:01:16;;;;;;;1999.90;999.90;;;24.50;99.90;;;;;;5102043;28;20093;-75
2022/06/28 07:03:44;;;;;;;1999.90;999.90;;;24.50;99.90;;;;;;5070508;28;20040;-75
2022/06/28 07:06:12;;;;;;;1999.90;999.90;;;24.20;99.90;;;;;;5051745;28;20468;-75
2022/06/28 07:08:39;;;;;;;1999.90;999.90;;;24.00;99.90;;;;;;5104516;28;20048;-74
2022/06/28 07:11:05;;;;;;;1999.90;999.90;;;23.60;99.90;;;;;;5083780;28;20058;-75
2022/06/28 07:13:30;;;;;;;1999.90;999.90;;;23.30;99.90;;;;;;5054137;28;20127;-75
2022/06/28 07:15:57;;;;;;;1999.90;999.90;;;23.30;99.90;;;;;;5104060;28;20455;-77
2022/06/28 07:18:23;;;;;;;1999.90;999.90;;;23.70;99.90;;;;;;5104093;28;20063;-77
2022/06/28 07:20:52;;;;;;;1999.90;999.90;;;24.00;99.90;;;;;;5062792;28;20094;-77
2022/06/28 07:23:18;;;;;;;1999.90;999.90;;;23.70;99.90;;;;;;5067636;28;20081;-76
2022/06/28 07:25:44;;;;;;;1999.90;999.90;;;23.30;99.90;;;;;;5069314;28;20492;-77
2022/06/28 07:28:10;;;;;;;1999.90;999.90;;;23.00;99.90;;;;;;5087373;28;20024;-77
2022/06/28 07:30:36;;;;;;;1999.90;999.90;;;23.10;99.90;;;;;;5068133;28;20101;-76
2022/06/28 07:33:02;;;;;;;1999.90;999.90;;;23.30;99.90;;;;;;5103871;28;20523;-76
2022/06/28 07:35:28;;;;;;;1999.90;999.90;;;22.70;99.90;;;;;;5070059;28;20040;-76
2022/06/28 07:37:53;;;;;;;1999.90;999.90;;;22.10;99.90;;;;;;5070077;28;20054;-76
2022/06/28 07:40:19;;;;;;;1999.90;999.90;;;21.80;99.90;;;;;;5049304;28;20037;-76
2022/06/28 07:42:46;;;;;;;1999.90;999.90;;;22.20;99.90;;;;;;5050015;28;20044;-76
2022/06/28 07:45:13;;;;;;;1999.90;999.90;;;21.80;99.90;;;;;;5065080;28;20087;-76
2022/06/28 07:47:38;;;;;;;1999.90;999.90;;;21.30;99.90;;;;;;5045873;28;20029;-76
2022/06/28 07:52:49;;;;;;;1999.90;999.90;;;21.80;99.90;;;;;;5066411;28;20118;-76
2022/06/28 07:55:14;;;;;;;1999.90;999.90;;;22.60;99.90;;;;;;5060878;28;20072;-77
2022/06/28 07:57:43;;;;;;;1999.90;999.90;;;23.20;99.90;;;;;;5046603;28;20040;-76
2022/06/28 08:00:09;;;;;;;1999.90;999.90;;;23.40;99.90;;;;;;5061854;28;20498;-76
2022/06/28 08:02:34;;;;;;;1999.90;999.90;;;23.10;99.90;;;;;;5060412;28;20044;-76
2022/06/28 08:05:00;;;;;;;1999.90;999.90;;;22.40;99.90;;;;;;5054333;28;20032;-77
2022/06/28 08:07:26;;;;;;;1999.90;999.90;;;21.80;99.90;;;;;;5064825;28;20120;-76
2022/06/28 08:09:52;;;;;;;1999.90;999.90;;;21.60;99.90;;;;;;5045738;28;20040;-76
2022/06/28 08:12:17;;;;;;;1999.90;999.90;;;22.10;99.90;;;;;;5062114;28;20068;-77
2022/06/28 08:14:43;;;;;;;1999.90;999.90;;;22.70;99.90;;;;;;5067343;28;20044;-77
2022/06/28 08:17:08;;;;;;;1999.90;999.90;;;23.10;99.90;;;;;;5060461;28;20483;-77
2022/06/28 08:19:34;;;;;;;1999.90;999.90;;;23.40;99.90;;;;;;5060090;28;20048;-77
2022/06/28 08:22:00;;;;;;;1999.90;999.90;;;23.40;99.90;;;;;;5046734;28;20036;-77
2022/06/28 08:24:26;;;;;;;1999.90;999.90;;;23.40;99.90;;;;;;5048651;28;20037;-77
2022/06/28 08:26:53;;;;;;;1999.90;999.90;;;23.60;99.90;;;;;;5066878;28;20036;-77
2022/06/28 08:29:20;;;;;;;1999.90;999.90;;;23.70;99.90;;;;;;5084238;28;20480;-74
2022/06/28 08:31:47;;;;;;;1999.90;999.90;;;23.80;99.90;;;;;;5052242;28;20051;-75
2022/06/28 08:34:12;;;;;;;1999.90;999.90;;;23.90;99.90;;;;;;5068276;28;20452;-74
2022/06/28 08:36:38;;;;;;;1999.90;999.90;;;23.40;99.90;;;;;;5049134;28;20048;-74
2022/06/28 08:39:05;;;;;;;1999.90;999.90;;;22.80;99.90;;;;;;5071025;28;20044;-74
2022/06/28 08:41:33;;;;;;;1999.90;999.90;;;22.50;99.90;;;;;;5104972;28;20048;-75
2022/06/28 08:43:59;;;;;;;1999.90;999.90;;;22.60;99.90;;;;;;5071456;28;20047;-74
2022/06/28 08:46:24;;;;;;;1999.90;999.90;;;23.10;99.90;;;;;;5077085;28;20044;-75
2022/06/28 08:49:01;;;;;;;1999.90;999.90;;;23.50;99.90;;;;;;5065988;28;20484;-75
2022/06/28 08:51:30;;;;;;;1999.90;999.90;;;24.00;99.90;;;;;;5058968;28;20042;-74
2022/06/28 08:53:59;;;;;;;1999.90;999.90;;;24.60;99.90;;;;;;5079963;28;20031;-74
2022/06/28 08:56:25;;;;;;;1999.90;999.90;;;24.90;99.90;;;;;;5057000;28;20048;-75
2022/06/28 08:58:51;;;;;;;1999.90;999.90;;;24.90;99.10;;;;;;5074827;28;20048;-75
2022/06/28 09:01:17;;;;;;;1999.90;999.90;;;24.50;99.90;;;;;;5057667;28;20040;-75
2022/06/28 09:03:46;;;;;;;1999.90;999.90;;;24.00;99.90;;;;;;5074612;28;20044;-74
2022/06/28 09:06:11;;;;;;;1999.90;999.90;;;23.30;96.80;;;;;;5115088;27;20044;-75
2022/06/28 09:08:38;;;;;;;1999.90;999.90;;;22.70;98.80;;;;;;5075857;28;20047;-74
2022/06/28 09:11:04;;;;;;;1999.90;999.90;;;22.20;99.90;;;;;;5069661;28;20421;-74
2022/06/28 09:13:30;;;;;;;1999.90;999.90;;;21.70;99.70;;;;;;5055964;28;20042;-74
2022/06/28 09:16:00;;;;;;;1999.90;999.90;;;21.30;99.90;;;;;;5065510;28;20048;-74
2022/06/28 09:18:38;;;;;;;1999.90;999.90;;;21.00;99.90;;;;;;5066971;28;20058;-74
2022/06/28 09:21:09;;;;;;;1999.90;999.90;;;20.70;99.90;;;;;;5065415;28;20481;-74
2022/06/28 09:23:38;;;;;;;1999.90;999.90;;;20.50;99.90;;;;;;5069105;28;20051;-74
2022/06/28 09:26:06;;;;;;;1999.90;999.90;;;20.40;99.90;;;;;;5061754;28;20131;-74
2022/06/28 09:28:33;;;;;;;1999.90;999.90;;;20.50;99.90;;;;;;5104828;28;20047;-74
2022/06/28 09:31:19;;;;;;;1999.90;999.90;;;21.10;99.90;;;;;;5079615;28;20040;-74
2022/06/28 09:33:59;;;;;;;1999.90;999.90;;;22.00;99.90;;;;;;5068002;28;20036;-74
2022/06/28 09:36:24;;;;;;;1999.90;999.90;;;22.70;99.90;;;;;;5093801;28;20045;-74
2022/06/28 09:38:50;;;;;;;1999.90;999.90;;;23.20;99.90;;;;;;5091881;28;20051;-74
2022/06/28 09:41:27;;;;;;;1999.90;999.90;;;23.40;99.90;;;;;;5088953;28;20052;-74
2022/06/28 09:44:03;;;;;;;1999.90;999.90;;;23.10;98.90;;;;;;5090171;28;20394;-74
2022/06/28 09:46:31;;;;;;;1999.90;999.90;;;22.70;99.90;;;;;;5055163;28;20128;-74
2022/06/28 09:48:59;;;;;;;1999.90;999.90;;;22.90;99.90;;;;;;5042230;28;20040;-74
2022/06/28 09:51:26;;;;;;;1999.90;999.90;;;23.30;99.90;;;;;;5105833;28;20051;-74
2022/06/28 09:54:03;;;;;;;1999.90;999.90;;;23.70;96.10;;;;;;5053746;28;20074;-74
2022/06/28 09:56:34;;;;;;;1999.90;999.90;;;24.00;99.20;;;;;;5075217;28;20044;-74
2022/06/28 09:59:00;;;;;;;1999.90;999.90;;;23.90;95.40;;;;;;5069346;28;20248;-74
2022/06/28 10:01:26;;;;;;;1999.90;999.90;;;23.80;93.80;;;;;;5085826;28;20093;-74
2022/06/28 10:03:53;;;;;;;1999.90;999.90;;;23.90;99.30;;;;;;5079691;28;20559;-74
2022/06/28 10:06:21;;;;;;;1999.90;999.90;;;24.10;96.00;;;;;;5069212;28;20074;-74
2022/06/28 10:08:47;;;;;;;1999.90;999.90;;;24.50;95.40;;;;;;5088001;28;20050;-74
2022/06/28 10:11:14;;;;;;;1999.90;999.90;;;24.50;93.90;;;;;;5063817;28;20043;-74
2022/06/28 10:16:34;;;;;;;1999.90;999.90;;;24.70;93.50;;;;;;5085398;28;20079;-74
2022/06/28 10:19:01;;;;;;;1999.90;999.90;;;24.80;93.80;;;;;;5104883;28;20082;-74
2022/06/28 10:21:56;;;;;;;1999.90;999.90;;;24.90;90.40;;;;;;5088044;28;20654;-73
2022/06/28 10:24:22;;;;;;;1999.90;999.90;;;24.50;96.10;;;;;;5070989;28;20048;-74
2022/06/28 10:27:13;;;;;;;1999.90;999.90;;;24.20;93.40;;;;;;5070947;28;20039;-74
2022/06/28 10:30:14;;;;;;;1999.90;999.90;;;23.80;95.10;;;;;;5074566;28;20461;-74
2022/06/28 10:32:44;;;;;;;1999.90;999.90;;;23.10;94.00;;;;;;5099409;28;20048;-74
2022/06/28 10:35:10;;;;;;;1999.90;999.90;;;22.80;99.10;;;;;;5100535;27;20436;-74
2022/06/28 10:37:55;;;;;;;1999.90;999.90;;;22.70;94.70;;;;;;5081967;28;20048;-74
2022/06/28 10:40:24;;;;;;;1999.90;999.90;;;23.10;95.80;;;;;;5049926;28;20052;-74
2022/06/28 10:42:52;;;;;;;1999.90;999.90;;;23.90;99.90;;;;;;5096182;28;20429;-74
2022/06/28 10:45:22;;;;;;;1999.90;999.90;;;24.10;96.10;;;;;;5105563;27;20074;-74
2022/06/28 10:48:10;;;;;;;1999.90;999.90;;;24.40;97.40;;;;;;5052599;28;20703;-74
2022/06/28 10:50:58;;;;;;;1999.90;999.90;;;24.60;98.50;;;;;;5057092;28;20047;-74
2022/06/28 10:53:25;;;;;;;1999.90;999.90;;;24.70;94.40;;;;;;5101133;28;20048;-74
2022/06/28 10:56:15;;;;;;;1999.90;999.90;;;24.80;94.40;;;;;;5067321;28;20058;-74
2022/06/28 10:59:03;;;;;;;1999.90;999.90;;;25.20;94.60;;;;;;5061233;28;20095;-73
2022/06/28 11:01:44;;;;;;;1999.90;999.90;;;25.70;90.40;;;;;;5044903;28;20040;-73
2022/06/28 11:04:24;;;;;;;1999.90;999.90;;;25.70;90.00;;;;;;5065032;28;20643;-73
2022/06/28 11:07:01;;;;;;;1999.90;999.90;;;25.80;94.90;;;;;;5055579;28;20436;-73
2022/06/28 11:09:48;;;;;;;1999.90;999.90;;;25.80;93.00;;;;;;5061861;28;20537;-73
2022/06/28 11:12:18;;;;;;;1999.90;999.90;;;25.60;90.50;;;;;;5109823;27;20147;-74
2022/06/28 11:14:48;;;;;;;1999.90;999.90;;;25.30;87.20;;;;;;5064706;28;20032;-73
2022/06/28 11:17:22;;;;;;;1999.90;999.90;;;25.20;88.90;;;;;;5073942;28;20050;-74
2022/06/28 11:19:52;;;;;;;1999.90;999.90;;;25.30;83.70;;;;;;5070901;28;20043;-74
2022/06/28 11:22:23;;;;;;;1999.90;999.90;;;24.90;91.30;;;;;;5077351;28;20047;-73
2022/06/28 11:24:49;;;;;;;1999.90;999.90;;;24.40;90.80;;;;;;5062768;28;20044;-74
2022/06/28 11:27:21;;;;;;;1999.90;999.90;;;24.00;93.10;;;;;;5073349;28;20039;-74
2022/06/28 11:29:59;;;;;;;1999.90;999.90;;;24.00;91.40;;;;;;5095491;28;20054;-74
2022/06/28 11:32:32;;;;;;;1999.90;999.90;;;24.20;85.30;;;;;;5080028;28;20044;-74
2022/06/28 11:35:16;;;;;;;1999.90;999.90;;;24.40;80.60;;;;;;5099211;28;20484;-74
2022/06/28 11:37:53;;;;;;;1999.90;999.90;;;24.70;90.10;;;;;;5074417;28;20035;-74
2022/06/28 11:40:22;;;;;;;1999.90;999.90;;;25.10;85.40;;;;;;5051127;28;20047;-74
2022/06/28 11:43:00;;;;;;;1999.90;999.90;;;25.30;90.00;;;;;;5068932;28;20038;-74
2022/06/28 11:45:31;;;;;;;1999.90;999.90;;;25.60;91.50;;;;;;5101951;28;20040;-74
2022/06/28 11:48:02;;;;;;;1999.90;999.90;;;26.00;89.80;;;;;;5096762;28;20033;-74
2022/06/28 11:50:28;;;;;;;1999.90;999.90;;;26.40;89.00;;;;;;5063764;28;20063;-74
2022/06/28 11:52:57;;;;;;;1999.90;999.90;;;26.80;81.20;;;;;;5068370;28;20055;-74
2022/06/28 11:55:46;;;;;;;1999.90;999.90;;;26.90;90.40;;;;;;5070043;28;20089;-74
2022/06/28 11:58:12;;;;;;;1999.90;999.90;;;26.40;78.40;;;;;;5095704;28;20428;-74
2022/06/28 12:00:37;;;;;;;1999.90;999.90;;;26.10;74.70;;;;;;5068686;28;20047;-74
2022/06/28 12:03:05;;;;;;;1999.90;999.90;;;25.90;75.20;;;;;;5088597;28;20166;-73
2022/06/28 12:05:33;;;;;;;1999.90;999.90;;;25.70;72.60;;;;;;5103023;28;20055;-73
2022/06/28 12:07:59;;;;;;;1999.90;999.90;;;25.60;75.30;;;;;;5070573;28;20040;-73
2022/06/28 12:10:28;;;;;;;1999.90;999.90;;;25.60;80.00;;;;;;5090470;28;20048;-73
2022/06/28 12:12:55;;;;;;;1999.90;999.90;;;25.80;85.50;;;;;;5056418;28;20056;-73
2022/06/28 12:15:32;;;;;;;1999.90;999.90;;;26.00;83.00;;;;;;5095809;28;20530;-73